Kingdom City, Missouri
Current Conditions -  °F | °C
As of 7:15 AM on Thursday 27 Nov 2014 (Local Time) from KCOU Reporting Station
Overcast Overcast  
Wind Chill: 19°   Ceiling: 1500
Heat Index: 28°   Visibility: 9mi
Dew Point: 24°   Wind: 10mph
Humidity: 85%   Direction: 320°NW
Pressure: 30.46"   Gusts: NA
Location:  38.95°N, 91.94°W
Report Text: KCOU 271315Z 32009KT 9SM OVC015 M02/M04 A3046 RMK AO2 T10221044
Loading
Personal Weather Stations






























Interactive Weather Map New forecast layout! Learn more

10-Day Weather Forecast

Advertisements
Track Severe Weather on mobile